createdAt,value
2022-12-23T00:01:17.473Z,2.27
2022-12-23T00:03:55.445Z,2.10
2022-12-23T00:06:22.966Z,2.23
2022-12-23T00:08:50.366Z,2.19
2022-12-23T00:11:20.354Z,2.21
2022-12-23T00:14:06.061Z,2.28
2022-12-23T00:16:37.531Z,2.35
2022-12-23T00:19:05.766Z,2.36
2022-12-23T00:21:33.366Z,2.35
2022-12-23T00:24:00.872Z,1.97
2022-12-23T00:26:28.764Z,1.78
2022-12-23T00:28:58.864Z,1.86
2022-12-23T00:31:27.179Z,1.94
2022-12-23T00:33:55.118Z,1.93
2022-12-23T00:36:25.680Z,1.95
2022-12-23T00:39:22.518Z,2.16
2022-12-23T00:42:08.707Z,2.11
2022-12-23T00:44:36.307Z,2.06
2022-12-23T00:47:03.721Z,2.01
2022-12-23T00:49:43.077Z,2.05
2022-12-23T00:52:13.746Z,2.11
2022-12-23T00:54:41.503Z,2.16
2022-12-23T00:57:09.142Z,2.18
2022-12-23T00:59:36.759Z,2.22
2022-12-23T01:02:22.473Z,2.18
2022-12-23T01:05:08.559Z,2.16
2022-12-23T01:07:36.294Z,2.12
2022-12-23T01:10:04.288Z,2.17
2022-12-23T01:12:31.945Z,2.24
2022-12-23T01:14:59.315Z,2.30
2022-12-23T01:17:26.887Z,2.30
2022-12-23T01:19:54.466Z,2.34
2022-12-23T01:22:22.009Z,2.42
2022-12-23T01:24:49.442Z,2.43
2022-12-23T01:27:16.995Z,2.49
2022-12-23T01:29:44.373Z,2.38
2022-12-23T01:32:11.968Z,2.36
2022-12-23T01:34:39.667Z,2.32
2022-12-23T01:37:07.224Z,2.30
2022-12-23T01:39:34.726Z,2.31
2022-12-23T01:45:15.032Z,2.14
2022-12-23T01:48:13.559Z,2.12
2022-12-23T01:50:52.415Z,1.87
2022-12-23T01:53:28.911Z,1.83
2022-12-23T01:56:13.011Z,1.89
2022-12-23T01:58:42.951Z,2.00
2022-12-23T02:01:29.746Z,1.90
2022-12-23T02:04:02.545Z,1.98
2022-12-23T02:06:53.702Z,1.94
2022-12-23T02:09:30.588Z,1.66
2022-12-23T02:12:08.364Z,1.77
2022-12-23T02:15:24.223Z,1.70
2022-12-23T02:18:25.330Z,1.84
2022-12-23T02:21:14.279Z,1.85
2022-12-23T02:24:03.005Z,1.82
2022-12-23T02:27:08.122Z,1.17
2022-12-23T02:30:00.344Z,1.47
2022-12-23T02:32:59.940Z,1.70
2022-12-23T02:35:54.872Z,1.81
2022-12-23T02:39:03.056Z,1.82
2022-12-23T02:41:59.544Z,1.85
2022-12-23T02:44:30.397Z,1.80
2022-12-23T02:47:04.726Z,1.85
2022-12-23T02:49:40.276Z,1.89
2022-12-23T02:52:14.137Z,1.90
2022-12-23T02:54:47.428Z,1.94
2022-12-23T02:57:20.824Z,1.97
2022-12-23T02:59:51.704Z,1.97
2022-12-23T03:02:20.150Z,1.68
2022-12-23T03:04:47.720Z,1.74
2022-12-23T03:07:20.954Z,1.86
2022-12-23T03:10:09.645Z,1.83
2022-12-23T03:13:15.803Z,1.87
2022-12-23T03:15:57.768Z,1.59
2022-12-23T03:19:08.779Z,1.51
2022-12-23T03:21:55.992Z,1.45
2022-12-23T03:24:28.497Z,1.54
2022-12-23T03:27:10.816Z,1.49
2022-12-23T03:30:09.627Z,1.68
2022-12-23T03:36:00.792Z,1.73
2022-12-23T03:38:31.186Z,1.85
2022-12-23T03:41:03.523Z,1.71
2022-12-23T03:43:36.192Z,1.74
2022-12-23T03:46:11.084Z,1.73
2022-12-23T03:48:44.177Z,1.72
2022-12-23T03:51:16.823Z,1.62
2022-12-23T03:53:59.459Z,1.36
2022-12-23T03:56:36.933Z,1.13
2022-12-23T03:59:15.121Z,1.03
2022-12-23T04:01:51.474Z,1.11
2022-12-23T04:04:27.527Z,1.16
2022-12-23T04:07:00.998Z,1.21
2022-12-23T04:09:29.388Z,1.29
2022-12-23T04:11:58.497Z,1.46
2022-12-23T04:14:25.905Z,1.54
2022-12-23T04:16:56.423Z,1.48
2022-12-23T04:19:23.790Z,1.61
2022-12-23T04:21:51.427Z,1.65
2022-12-23T04:24:18.814Z,1.82
2022-12-23T04:26:46.310Z,1.80
2022-12-23T04:29:13.782Z,1.60
2022-12-23T04:31:41.441Z,1.62
2022-12-23T04:36:59.693Z,1.73
2022-12-23T04:39:27.083Z,1.29
2022-12-23T04:41:55.037Z,1.46
2022-12-23T04:44:22.615Z,1.75
2022-12-23T04:46:50.352Z,1.81
2022-12-23T04:49:17.814Z,1.86
2022-12-23T04:51:49.198Z,1.87
2022-12-23T04:54:16.900Z,1.90
2022-12-23T04:56:44.845Z,1.92
2022-12-23T04:59:12.570Z,1.67
2022-12-23T05:01:40.272Z,1.79
2022-12-23T05:04:08.081Z,1.82
2022-12-23T05:06:36.594Z,1.81
2022-12-23T05:09:06.921Z,1.83
2022-12-23T05:11:40.179Z,1.92
2022-12-23T05:14:13.175Z,1.90
2022-12-23T05:16:41.402Z,1.99
2022-12-23T05:19:10.999Z,1.98
2022-12-23T05:21:40.245Z,2.04
2022-12-23T05:24:07.919Z,2.00
2022-12-23T05:26:35.819Z,1.92
2022-12-23T05:29:03.424Z,1.86
2022-12-23T05:31:33.577Z,1.96
2022-12-23T05:34:06.378Z,1.91
2022-12-23T05:36:34.567Z,1.94
2022-12-23T05:39:02.645Z,1.97
2022-12-23T05:41:31.030Z,2.01
2022-12-23T05:43:58.856Z,2.08
2022-12-23T05:46:42.128Z,2.03
2022-12-23T05:49:09.950Z,2.00
2022-12-23T05:51:38.354Z,2.04
2022-12-23T05:54:06.057Z,1.90
2022-12-23T05:56:34.112Z,1.92
2022-12-23T05:59:02.470Z,1.57
2022-12-23T06:01:57.524Z,1.77
2022-12-23T06:04:25.799Z,1.81
2022-12-23T06:06:53.689Z,1.85
2022-12-23T06:09:21.494Z,1.78
2022-12-23T06:11:56.708Z,1.88
2022-12-23T06:14:28.972Z,1.96
2022-12-23T06:16:58.846Z,2.00
2022-12-23T06:19:27.753Z,1.93
2022-12-23T06:21:59.270Z,1.58
2022-12-23T06:24:27.869Z,1.55
2022-12-23T06:27:01.794Z,1.45
2022-12-23T06:29:31.658Z,1.68
2022-12-23T06:32:06.788Z,1.34
2022-12-23T06:38:27.364Z,1.51
2022-12-23T06:46:44.367Z,1.53
2022-12-23T06:49:15.681Z,1.40
2022-12-23T06:51:43.837Z,1.67
2022-12-23T06:54:12.851Z,1.81
2022-12-23T06:56:41.581Z,1.77
2022-12-23T06:59:09.524Z,1.79
2022-12-23T07:01:38.301Z,1.65
2022-12-23T07:04:06.027Z,1.58
2022-12-23T07:06:33.866Z,1.39
2022-12-23T07:09:01.998Z,1.47
2022-12-23T07:11:30.882Z,1.59
2022-12-23T07:13:59.845Z,1.54
2022-12-23T07:16:30.453Z,1.61
2022-12-23T07:19:01.749Z,1.72
2022-12-23T07:21:30.489Z,1.59
2022-12-23T07:24:01.650Z,1.69
2022-12-23T07:26:30.371Z,1.81
2022-12-23T07:28:59.536Z,1.95
2022-12-23T07:31:29.556Z,2.10
2022-12-23T07:33:58.187Z,2.05
2022-12-23T07:36:30.273Z,2.14
2022-12-23T07:39:02.694Z,2.26
2022-12-23T07:41:59.037Z,1.79
2022-12-23T07:44:40.832Z,1.86
2022-12-23T07:47:10.466Z,2.13
2022-12-23T07:49:47.913Z,1.90
2022-12-23T07:52:16.900Z,2.22
2022-12-23T07:55:15.133Z,2.28
2022-12-23T08:01:08.765Z,2.14
2022-12-23T08:04:30.138Z,2.53
2022-12-23T08:06:58.573Z,2.39
2022-12-23T08:09:28.079Z,2.34
2022-12-23T08:12:11.720Z,2.10
2022-12-23T08:14:39.679Z,2.20
2022-12-23T08:17:07.500Z,1.88
2022-12-23T08:19:39.272Z,1.94
2022-12-23T08:22:10.514Z,1.93
2022-12-23T08:24:38.868Z,2.27
2022-12-23T08:27:07.645Z,2.27
2022-12-23T08:29:39.015Z,2.42
2022-12-23T08:32:09.450Z,2.45
2022-12-23T08:35:33.042Z,2.40
2022-12-23T08:38:14.122Z,2.35
2022-12-23T08:40:52.840Z,2.49
2022-12-23T08:43:30.221Z,2.63
2022-12-23T08:46:01.639Z,2.72
2022-12-23T08:48:30.051Z,2.74
2022-12-23T08:51:34.128Z,2.58
2022-12-23T08:54:03.443Z,2.56
2022-12-23T08:56:35.635Z,2.67
2022-12-23T08:59:04.003Z,2.79
2022-12-23T09:01:37.871Z,2.65
2022-12-23T09:04:07.144Z,2.86
2022-12-23T09:06:39.197Z,2.81
2022-12-23T09:09:08.181Z,2.59
2022-12-23T09:11:35.839Z,2.86
2022-12-23T09:14:08.992Z,2.98
2022-12-23T09:16:38.620Z,3.13
2022-12-23T09:19:06.306Z,3.15
2022-12-23T09:21:34.821Z,3.35
2022-12-23T09:24:04.041Z,3.26
2022-12-23T09:26:32.980Z,3.10
2022-12-23T09:29:02.276Z,2.92
2022-12-23T09:31:37.641Z,3.26
2022-12-23T09:34:06.574Z,3.46
2022-12-23T09:36:34.944Z,3.27
2022-12-23T09:39:03.461Z,3.28
2022-12-23T09:41:38.010Z,3.43
2022-12-23T09:44:35.457Z,3.40
2022-12-23T09:47:08.518Z,3.64
2022-12-23T09:49:46.082Z,3.53
2022-12-23T09:52:26.596Z,3.59
2022-12-23T09:54:56.803Z,3.61
2022-12-23T09:57:37.153Z,3.59
2022-12-23T10:00:23.637Z,3.58
2022-12-23T10:03:26.236Z,3.72
2022-12-23T10:06:21.609Z,3.56
2022-12-23T10:08:53.794Z,3.53
2022-12-23T10:11:28.632Z,3.56
2022-12-23T10:14:01.643Z,3.57
2022-12-23T10:16:55.544Z,3.69
2022-12-23T10:19:42.524Z,3.63
2022-12-23T10:22:41.671Z,3.82
2022-12-23T10:25:35.298Z,3.81
2022-12-23T10:28:05.708Z,3.62
2022-12-23T10:31:23.306Z,3.85
2022-12-23T10:33:45.043Z,3.99
2022-12-23T10:36:12.981Z,3.92
2022-12-23T10:39:01.852Z,4.06
2022-12-23T10:41:57.807Z,4.04
2022-12-23T10:44:51.667Z,4.07
2022-12-23T10:47:54.371Z,4.00
2022-12-23T10:50:51.248Z,4.04
2022-12-23T10:53:50.795Z,4.07
2022-12-23T10:56:19.587Z,4.08
2022-12-23T10:58:52.429Z,3.96
2022-12-23T11:01:26.684Z,3.95
2022-12-23T11:04:09.474Z,3.84
2022-12-23T11:06:44.163Z,3.73
2022-12-23T11:09:24.198Z,3.81
2022-12-23T11:12:02.157Z,3.68
2022-12-23T11:14:43.201Z,3.76
2022-12-23T11:17:23.283Z,3.89
2022-12-23T11:20:12.229Z,3.99
2022-12-23T11:22:53.717Z,4.02
2022-12-23T11:25:48.094Z,4.11
2022-12-23T11:28:19.960Z,4.01
2022-12-23T11:30:56.513Z,4.06
2022-12-23T11:33:30.031Z,4.17
2022-12-23T11:36:07.572Z,4.18
2022-12-23T11:38:38.457Z,4.17
2022-12-23T11:41:06.695Z,4.22
2022-12-23T11:43:35.146Z,4.17
2022-12-23T11:49:19.921Z,4.10
2022-12-23T11:52:01.975Z,4.24
2022-12-23T11:54:31.059Z,4.29
2022-12-23T11:56:59.738Z,4.26
2022-12-23T11:59:40.127Z,4.27
2022-12-23T12:02:20.730Z,4.29
2022-12-23T12:05:05.104Z,4.35
2022-12-23T12:07:34.197Z,4.23
2022-12-23T12:10:03.235Z,4.17
2022-12-23T12:12:31.309Z,4.24
2022-12-23T12:15:01.451Z,4.23
2022-12-23T12:17:30.664Z,4.37
2022-12-23T12:23:07.129Z,4.35
2022-12-23T12:26:05.321Z,4.35
2022-12-23T12:28:43.653Z,4.33
2022-12-23T12:31:39.646Z,4.39
2022-12-23T12:34:30.809Z,4.49
2022-12-23T12:37:20.284Z,4.45
2022-12-23T12:40:18.802Z,4.51
2022-12-23T12:42:55.195Z,4.31
2022-12-23T12:45:33.302Z,4.50
2022-12-23T12:48:18.651Z,4.52
2022-12-23T12:51:09.533Z,4.56
2022-12-23T12:53:50.826Z,4.40
2022-12-23T12:56:41.654Z,4.47
2022-12-23T12:59:18.965Z,4.58
2022-12-23T13:04:52.885Z,4.66
2022-12-23T13:07:58.296Z,4.72
2022-12-23T13:10:53.960Z,4.53
2022-12-23T13:13:45.621Z,4.58
2022-12-23T13:16:31.906Z,4.66
2022-12-23T13:19:30.821Z,4.56
2022-12-23T13:22:07.579Z,4.65
2022-12-23T13:24:53.603Z,4.53
2022-12-23T13:27:42.327Z,4.59
2022-12-23T13:30:24.066Z,4.61
2022-12-23T13:33:23.399Z,4.65
2022-12-23T13:36:04.686Z,4.72
2022-12-23T13:38:51.339Z,4.69
2022-12-23T13:41:31.711Z,4.62
2022-12-23T13:44:05.617Z,4.36
2022-12-23T13:47:07.634Z,4.31
2022-12-23T13:50:04.139Z,4.38
2022-12-23T13:53:10.439Z,4.53
2022-12-23T13:56:27.473Z,4.58
2022-12-23T13:58:55.942Z,4.67
2022-12-23T14:01:35.870Z,4.63
2022-12-23T14:04:34.648Z,4.65
2022-12-23T14:07:23.076Z,4.56
2022-12-23T14:09:57.405Z,4.63
2022-12-23T14:12:36.538Z,4.37
2022-12-23T14:15:30.216Z,4.59
2022-12-23T14:18:18.659Z,4.27
2022-12-23T14:21:25.325Z,4.49
2022-12-23T14:23:52.966Z,4.61
2022-12-23T14:26:51.885Z,4.25
2022-12-23T14:29:40.035Z,4.30
2022-12-23T14:32:27.883Z,4.48
2022-12-23T14:35:21.483Z,4.37
2022-12-23T14:38:16.738Z,4.37
2022-12-23T14:41:38.650Z,4.49
2022-12-23T14:44:39.487Z,4.41
2022-12-23T14:47:40.365Z,4.41
2022-12-23T14:50:34.402Z,4.39
2022-12-23T14:53:22.284Z,4.18
2022-12-23T14:55:51.068Z,4.19
2022-12-23T14:58:18.617Z,4.37
2022-12-23T15:01:00.548Z,4.48
2022-12-23T15:03:34.290Z,4.55
2022-12-23T15:06:06.853Z,4.62
2022-12-23T15:08:41.008Z,4.63
2022-12-23T15:11:15.631Z,4.73
2022-12-23T15:13:43.375Z,4.88
2022-12-23T15:16:17.897Z,4.86
2022-12-23T15:19:02.580Z,4.78
2022-12-23T15:21:33.681Z,4.71
2022-12-23T15:24:01.254Z,4.61
2022-12-23T15:26:32.256Z,4.59
2022-12-23T15:29:01.120Z,4.61
2022-12-23T15:31:33.092Z,4.49
2022-12-23T15:34:16.585Z,4.72
2022-12-23T15:36:46.048Z,4.82
2022-12-23T15:39:21.424Z,4.82
2022-12-23T15:41:49.395Z,4.23
2022-12-23T15:44:24.331Z,4.50
2022-12-23T15:46:52.667Z,4.60
2022-12-23T15:49:22.093Z,4.46
2022-12-23T15:52:07.776Z,4.53
2022-12-23T15:57:30.423Z,4.65
2022-12-23T15:59:59.688Z,4.74
2022-12-23T16:03:00.279Z,4.77
2022-12-23T16:05:34.587Z,4.36
2022-12-23T16:08:28.235Z,4.15
2022-12-23T16:11:14.499Z,3.74
2022-12-23T16:13:57.968Z,3.86
2022-12-23T16:16:40.136Z,3.88
2022-12-23T16:19:44.037Z,4.15
2022-12-23T16:22:27.337Z,4.15
2022-12-23T16:25:00.610Z,3.99
2022-12-23T16:27:36.315Z,4.11
2022-12-23T16:33:21.727Z,4.28
2022-12-23T16:35:49.223Z,4.29
2022-12-23T16:38:18.080Z,4.27
2022-12-23T16:40:51.645Z,4.52
2022-12-23T16:43:20.052Z,4.55
2022-12-23T16:45:52.246Z,4.63
2022-12-23T16:48:51.373Z,4.46
2022-12-23T16:51:21.115Z,4.74
2022-12-23T16:53:49.855Z,4.80
2022-12-23T16:56:21.079Z,4.58
2022-12-23T16:58:48.518Z,4.59
2022-12-23T17:01:18.962Z,4.77
2022-12-23T17:03:46.583Z,4.85
2022-12-23T17:06:26.381Z,5.01
2022-12-23T17:09:14.461Z,4.92
2022-12-23T17:11:43.908Z,4.97
2022-12-23T17:14:23.069Z,4.95
2022-12-23T17:16:51.201Z,4.65
2022-12-23T17:19:27.159Z,4.84
2022-12-23T17:22:00.281Z,4.87
2022-12-23T17:24:28.326Z,4.84
2022-12-23T17:26:57.171Z,4.97
2022-12-23T17:29:25.276Z,4.78
2022-12-23T17:31:53.670Z,4.82
2022-12-23T17:34:23.600Z,4.69
2022-12-23T17:36:52.794Z,4.28
2022-12-23T17:39:21.568Z,4.44
2022-12-23T17:41:49.399Z,4.48
2022-12-23T17:44:17.970Z,4.65
2022-12-23T17:46:46.685Z,4.74
2022-12-23T17:49:14.697Z,4.70
2022-12-23T17:51:42.960Z,4.76
2022-12-23T17:54:28.789Z,4.74
2022-12-23T17:56:57.791Z,4.80
2022-12-23T17:59:25.210Z,4.76
2022-12-23T18:01:52.907Z,4.68
2022-12-23T18:04:20.516Z,4.48
2022-12-23T18:06:48.060Z,4.72
2022-12-23T18:09:15.542Z,4.87
2022-12-23T18:11:45.833Z,4.95
2022-12-23T18:14:24.035Z,4.83
2022-12-23T18:16:51.760Z,4.78
2022-12-23T18:19:21.399Z,4.82
2022-12-23T18:21:49.827Z,4.97
2022-12-23T18:24:17.921Z,4.80
2022-12-23T18:26:45.964Z,4.86
2022-12-23T18:29:13.541Z,5.01
2022-12-23T18:31:50.901Z,5.00
2022-12-23T18:34:19.990Z,5.08
2022-12-23T18:36:48.668Z,5.09
2022-12-23T18:39:16.283Z,5.22
2022-12-23T18:41:43.802Z,5.43
2022-12-23T18:44:19.087Z,5.32
2022-12-23T18:46:47.461Z,5.15
2022-12-23T18:49:14.906Z,5.25
2022-12-23T18:51:42.446Z,5.35
2022-12-23T18:54:14.585Z,5.31
2022-12-23T18:56:47.541Z,5.30
2022-12-23T18:59:22.554Z,5.40
2022-12-23T19:01:55.620Z,5.51
2022-12-23T19:04:23.380Z,5.37
2022-12-23T19:06:50.914Z,5.24
2022-12-23T19:09:21.669Z,5.28
2022-12-23T19:11:51.052Z,4.91
2022-12-23T19:14:18.539Z,5.22
2022-12-23T19:16:51.230Z,5.15
2022-12-23T19:19:20.261Z,5.06
2022-12-23T19:21:47.838Z,5.25
2022-12-23T19:24:15.355Z,5.10
2022-12-23T19:26:43.179Z,5.29
2022-12-23T19:29:10.621Z,5.20
2022-12-23T19:31:47.257Z,5.30
2022-12-23T19:34:15.965Z,5.39
2022-12-23T19:36:44.299Z,5.48
2022-12-23T19:39:17.007Z,5.51
2022-12-23T19:41:45.697Z,5.40
2022-12-23T19:44:13.745Z,5.34
2022-12-23T19:46:41.734Z,5.47
2022-12-23T19:49:12.761Z,5.58
2022-12-23T19:51:43.328Z,5.48
2022-12-23T19:54:10.966Z,5.40
2022-12-23T19:56:38.288Z,5.34
2022-12-23T19:59:05.931Z,5.35
2022-12-23T20:01:33.422Z,5.44
2022-12-23T20:04:01.338Z,5.49
2022-12-23T20:06:34.040Z,5.38
2022-12-23T20:09:04.586Z,5.34
2022-12-23T20:11:50.586Z,5.08
2022-12-23T20:14:19.647Z,5.23
2022-12-23T20:16:48.601Z,5.15
2022-12-23T20:19:17.347Z,5.13
2022-12-23T20:21:47.874Z,5.02
2022-12-23T20:24:16.563Z,5.03
2022-12-23T20:26:44.224Z,5.04
2022-12-23T20:29:11.968Z,4.94
2022-12-23T20:31:39.952Z,5.10
2022-12-23T20:34:11.340Z,5.17
2022-12-23T20:36:38.892Z,5.19
2022-12-23T20:39:06.643Z,5.27
2022-12-23T20:41:34.351Z,5.10
2022-12-23T20:46:49.537Z,5.18
2022-12-23T20:49:17.038Z,5.24
2022-12-23T20:51:44.588Z,5.20
2022-12-23T20:54:12.124Z,5.13
2022-12-23T20:56:39.642Z,5.27
2022-12-23T20:59:07.106Z,5.00
2022-12-23T21:01:40.223Z,4.95
2022-12-23T21:04:12.074Z,5.12
2022-12-23T21:06:40.134Z,4.97
2022-12-23T21:09:10.356Z,5.01
2022-12-23T21:11:41.075Z,4.72
2022-12-23T21:14:08.800Z,4.89
2022-12-23T21:16:38.042Z,4.82
2022-12-23T21:19:13.472Z,4.74
2022-12-23T21:21:40.842Z,4.67
2022-12-23T21:24:09.848Z,4.71
2022-12-23T21:26:37.709Z,4.76
2022-12-23T21:29:06.785Z,4.84
2022-12-23T21:31:37.927Z,4.81
2022-12-23T21:34:06.418Z,4.68
2022-12-23T21:36:37.614Z,4.63
2022-12-23T21:39:06.651Z,4.57
2022-12-23T21:41:39.711Z,4.57
2022-12-23T21:44:08.312Z,4.81
2022-12-23T21:46:35.762Z,4.81
2022-12-23T21:49:03.850Z,4.63
2022-12-23T21:51:39.660Z,4.48
2022-12-23T21:57:05.234Z,4.71
2022-12-23T21:59:35.219Z,4.56
2022-12-23T22:04:48.011Z,4.34
2022-12-23T22:07:15.489Z,4.37
2022-12-23T22:09:43.020Z,4.14
2022-12-23T22:12:11.057Z,4.27
2022-12-23T22:14:39.776Z,4.31
2022-12-23T22:17:07.223Z,3.97
2022-12-23T22:19:34.661Z,3.99
2022-12-23T22:22:02.089Z,3.86
2022-12-23T22:27:13.569Z,4.09
2022-12-23T22:29:41.735Z,4.25
2022-12-23T22:32:09.438Z,4.23
2022-12-23T22:34:36.961Z,4.05
2022-12-23T22:37:04.514Z,3.96
2022-12-23T22:39:31.923Z,3.92
2022-12-23T22:41:59.465Z,4.04
2022-12-23T22:44:31.066Z,3.85
2022-12-23T22:46:59.076Z,3.91
2022-12-23T22:49:26.807Z,3.73
2022-12-23T22:51:54.471Z,3.89
2022-12-23T22:57:03.172Z,3.85
2022-12-23T22:59:30.642Z,4.07
2022-12-23T23:01:58.158Z,3.81
2022-12-23T23:04:25.771Z,3.76
2022-12-23T23:09:43.712Z,3.89
2022-12-23T23:12:11.117Z,3.79
2022-12-23T23:14:54.136Z,3.88
2022-12-23T23:17:27.374Z,3.72
2022-12-23T23:19:55.005Z,3.69
2022-12-23T23:22:24.021Z,3.79
2022-12-23T23:24:51.920Z,3.59
2022-12-23T23:27:19.851Z,3.74
2022-12-23T23:29:47.345Z,3.54
2022-12-23T23:32:14.988Z,3.67
2022-12-23T23:34:42.777Z,3.68
2022-12-23T23:37:10.289Z,3.55
2022-12-23T23:39:37.678Z,3.47
2022-12-23T23:42:06.396Z,3.52
2022-12-23T23:44:33.855Z,3.65
2022-12-23T23:47:01.275Z,3.29
2022-12-23T23:49:29.014Z,3.46
2022-12-23T23:51:56.741Z,3.47
2022-12-23T23:54:24.247Z,3.20
2022-12-23T23:56:51.675Z,3.35
2022-12-23T23:59:19.075Z,3.63
